Terminal Aerodrome Forecast
Issued by NWS

Home | Current Version | Previous Version | Text Only | Print | Product List | Glossary On
Versions: 1 2 3 4 5 6 7 8 9 10 11 12
079
FTUS45 KABQ 301738
TAFAEG
TAF
KAEG 301738Z 3018/3118 17010KT P6SM SCT090
     FM302100 20012G20KT P6SM SCT100 SCT200
     FM310000 23015KT P6SM VCSH BKN100
     FM310500 03005KT P6SM SCT150=

USA.gov is the U.S. government's official web portal to all federal, state and local government web resources and services.